createdAt,value
2023-02-18T00:01:27.830Z,2.22
2023-02-18T00:03:55.352Z,2.50
2023-02-18T00:06:31.655Z,1.95
2023-02-18T00:09:02.475Z,2.17
2023-02-18T00:11:34.307Z,3.17
2023-02-18T00:14:03.146Z,3.10
2023-02-18T00:16:31.113Z,2.50
2023-02-18T00:19:00.826Z,2.20
2023-02-18T00:21:28.948Z,2.40
2023-02-18T00:23:56.722Z,2.25
2023-02-18T00:26:24.171Z,2.15
2023-02-18T00:28:52.285Z,2.47
2023-02-18T00:31:26.894Z,2.13
2023-02-18T00:33:55.189Z,2.55
2023-02-18T00:36:23.553Z,2.95
2023-02-18T00:38:53.308Z,2.17
2023-02-18T00:41:21.954Z,2.45
2023-02-18T00:43:49.346Z,2.45
2023-02-18T00:46:16.996Z,2.55
2023-02-18T00:48:44.571Z,3.00
2023-02-18T00:51:12.684Z,1.95
2023-02-18T00:53:40.919Z,2.70
2023-02-18T00:56:10.436Z,2.47
2023-02-18T00:58:38.392Z,2.05
2023-02-18T01:01:07.798Z,2.28
2023-02-18T01:03:36.984Z,2.13
2023-02-18T01:06:06.053Z,2.30
2023-02-18T01:08:34.805Z,2.65
2023-02-18T01:11:02.947Z,2.45
2023-02-18T01:13:30.696Z,2.15
2023-02-18T01:15:58.325Z,2.67
2023-02-18T01:18:26.375Z,2.05
2023-02-18T01:20:53.986Z,1.95
2023-02-18T01:23:22.578Z,2.30
2023-02-18T01:25:50.040Z,1.90
2023-02-18T01:28:19.223Z,2.28
2023-02-18T01:30:46.694Z,2.47
2023-02-18T01:33:14.097Z,2.55
2023-02-18T01:35:41.782Z,2.17
2023-02-18T01:38:09.848Z,2.67
2023-02-18T01:40:43.992Z,2.63
2023-02-18T01:43:12.879Z,2.78
2023-02-18T01:45:52.250Z,2.50
2023-02-18T01:48:29.689Z,2.17
2023-02-18T01:51:13.234Z,2.58
2023-02-18T01:53:50.108Z,2.30
2023-02-18T01:56:24.867Z,2.20
2023-02-18T01:58:54.879Z,2.22
2023-02-18T02:01:22.404Z,2.13
2023-02-18T02:03:49.772Z,1.98
2023-02-18T02:06:20.230Z,1.80
2023-02-18T02:08:54.539Z,2.03
2023-02-18T02:11:41.811Z,1.80
2023-02-18T02:14:40.433Z,2.13
2023-02-18T02:17:39.547Z,1.90
2023-02-18T02:23:08.829Z,2.15
2023-02-18T02:25:42.017Z,2.35
2023-02-18T02:28:11.995Z,1.75
2023-02-18T02:31:03.983Z,2.42
2023-02-18T02:34:00.137Z,2.13
2023-02-18T02:36:54.530Z,2.85
2023-02-18T02:39:47.691Z,2.45
2023-02-18T02:42:24.439Z,1.80
2023-02-18T02:45:21.790Z,2.15
2023-02-18T02:48:01.417Z,2.33
2023-02-18T02:51:19.182Z,2.20
2023-02-18T02:53:46.505Z,2.45
2023-02-18T02:56:20.108Z,2.67
2023-02-18T02:58:55.979Z,1.65
2023-02-18T03:01:35.715Z,3.05
2023-02-18T03:04:24.396Z,2.22
2023-02-18T03:07:08.291Z,1.90
2023-02-18T03:10:02.548Z,2.00
2023-02-18T03:13:37.282Z,2.00
2023-02-18T03:16:04.505Z,1.80
2023-02-18T03:18:40.649Z,1.92
2023-02-18T03:21:24.393Z,2.20
2023-02-18T03:24:01.868Z,2.40
2023-02-18T03:26:32.236Z,2.92
2023-02-18T03:31:32.636Z,2.13
2023-02-18T03:34:10.180Z,1.80
2023-02-18T03:36:39.294Z,2.05
2023-02-18T03:39:16.982Z,1.77
2023-02-18T03:41:45.229Z,2.10
2023-02-18T03:44:13.897Z,1.45
2023-02-18T03:46:43.915Z,1.80
2023-02-18T03:49:13.401Z,1.92
2023-02-18T03:51:42.284Z,1.83
2023-02-18T03:54:10.392Z,2.35
2023-02-18T03:56:38.000Z,1.77
2023-02-18T03:59:05.288Z,1.95
2023-02-18T04:01:32.734Z,2.20
2023-02-18T04:04:00.208Z,2.42
2023-02-18T04:06:27.683Z,2.10
2023-02-18T04:08:55.198Z,2.85
2023-02-18T04:11:22.587Z,2.20
2023-02-18T04:13:50.023Z,1.92
2023-02-18T04:16:17.388Z,2.28
2023-02-18T04:18:44.791Z,2.22
2023-02-18T04:21:12.067Z,2.40
2023-02-18T04:23:39.288Z,2.20
2023-02-18T04:26:06.916Z,2.10
2023-02-18T04:28:34.341Z,2.05
2023-02-18T04:31:01.815Z,2.83
2023-02-18T04:33:29.400Z,2.42
2023-02-18T04:35:56.662Z,1.85
2023-02-18T04:38:24.262Z,2.72
2023-02-18T04:40:51.663Z,2.25
2023-02-18T04:43:19.184Z,2.50
2023-02-18T04:45:46.684Z,2.13
2023-02-18T04:48:14.055Z,1.85
2023-02-18T04:50:41.568Z,1.90
2023-02-18T04:53:08.953Z,2.20
2023-02-18T04:55:36.416Z,2.22
2023-02-18T04:58:03.715Z,2.53
2023-02-18T05:00:31.036Z,1.80
2023-02-18T05:02:58.387Z,2.67
2023-02-18T05:05:25.706Z,1.73
2023-02-18T05:07:53.036Z,2.92
2023-02-18T05:10:20.362Z,2.95
2023-02-18T05:12:47.629Z,2.00
2023-02-18T05:15:15.652Z,2.25
2023-02-18T05:17:43.000Z,2.33
2023-02-18T05:20:10.730Z,2.10
2023-02-18T05:22:38.785Z,1.73
2023-02-18T05:25:06.812Z,1.80
2023-02-18T05:27:34.241Z,2.30
2023-02-18T05:30:01.580Z,2.17
2023-02-18T05:32:28.969Z,1.90
2023-02-18T05:34:56.166Z,2.10
2023-02-18T05:37:23.554Z,2.30
2023-02-18T05:39:50.950Z,3.45
2023-02-18T05:42:18.197Z,2.05
2023-02-18T05:44:45.455Z,2.60
2023-02-18T05:47:13.523Z,2.25
2023-02-18T05:49:42.663Z,2.80
2023-02-18T05:52:11.180Z,2.90
2023-02-18T05:54:38.999Z,2.20
2023-02-18T05:57:06.798Z,3.00
2023-02-18T05:59:34.472Z,2.83
2023-02-18T06:02:01.890Z,2.28
2023-02-18T06:04:29.503Z,2.50
2023-02-18T06:06:56.932Z,2.17
2023-02-18T06:09:24.216Z,2.20
2023-02-18T06:11:51.542Z,2.38
2023-02-18T06:14:19.099Z,2.55
2023-02-18T06:16:46.402Z,2.80
2023-02-18T06:19:13.812Z,2.28
2023-02-18T06:21:41.268Z,2.10
2023-02-18T06:24:08.823Z,2.17
2023-02-18T06:26:36.269Z,2.55
2023-02-18T06:29:03.826Z,2.05
2023-02-18T06:31:31.440Z,3.17
2023-02-18T06:33:58.909Z,2.92
2023-02-18T06:36:26.204Z,2.58
2023-02-18T06:38:56.439Z,2.40
2023-02-18T06:41:24.018Z,1.92
2023-02-18T06:43:51.715Z,2.28
2023-02-18T06:46:19.291Z,2.53
2023-02-18T06:48:46.922Z,2.70
2023-02-18T06:51:14.777Z,2.38
2023-02-18T06:53:44.006Z,2.28
2023-02-18T06:56:12.179Z,2.58
2023-02-18T06:58:39.663Z,2.80
2023-02-18T07:01:07.215Z,2.20
2023-02-18T07:03:34.747Z,2.08
2023-02-18T07:06:02.143Z,2.63
2023-02-18T07:08:31.187Z,2.70
2023-02-18T07:10:58.590Z,2.70
2023-02-18T07:13:25.838Z,2.30
2023-02-18T07:15:53.150Z,2.58
2023-02-18T07:18:20.638Z,2.42
2023-02-18T07:20:48.044Z,2.33
2023-02-18T07:23:15.299Z,2.92
2023-02-18T07:25:42.687Z,2.40
2023-02-18T07:28:09.938Z,2.63
2023-02-18T07:30:37.278Z,2.58
2023-02-18T07:33:04.778Z,3.25
2023-02-18T07:35:32.259Z,2.78
2023-02-18T07:37:59.534Z,3.28
2023-02-18T07:40:26.952Z,2.88
2023-02-18T07:42:54.352Z,3.50
2023-02-18T07:45:21.673Z,2.97
2023-02-18T07:47:49.521Z,2.47
2023-02-18T07:50:17.342Z,2.53
2023-02-18T07:52:44.999Z,2.22
2023-02-18T07:55:12.936Z,3.30
2023-02-18T07:57:57.576Z,2.90
2023-02-18T08:00:25.376Z,2.40
2023-02-18T08:02:53.282Z,2.47
2023-02-18T08:05:21.436Z,2.95
2023-02-18T08:07:49.237Z,2.92
2023-02-18T08:10:17.498Z,3.25
2023-02-18T08:12:45.419Z,3.25
2023-02-18T08:15:14.213Z,3.67
2023-02-18T08:17:41.952Z,2.60
2023-02-18T08:20:11.943Z,2.78
2023-02-18T08:22:39.924Z,2.78
2023-02-18T08:25:09.153Z,2.47
2023-02-18T08:27:40.574Z,3.53
2023-02-18T08:30:09.524Z,2.70
2023-02-18T08:32:37.909Z,3.90
2023-02-18T08:35:08.095Z,3.13
2023-02-18T08:40:21.972Z,2.83
2023-02-18T08:42:50.235Z,2.65
2023-02-18T08:45:18.414Z,3.90
2023-02-18T08:48:19.489Z,3.95
2023-02-18T08:50:35.275Z,3.47
2023-02-18T08:53:04.104Z,2.92
2023-02-18T08:55:34.129Z,2.83
2023-02-18T08:58:02.463Z,3.03
2023-02-18T09:00:30.432Z,2.95
2023-02-18T09:02:58.344Z,2.72
2023-02-18T09:05:26.487Z,2.80
2023-02-18T09:07:54.353Z,3.05
2023-02-18T09:10:22.238Z,3.67
2023-02-18T09:12:50.144Z,3.58
2023-02-18T09:15:18.067Z,2.90
2023-02-18T09:17:46.360Z,2.88
2023-02-18T09:20:14.826Z,2.90
2023-02-18T09:22:42.799Z,2.95
2023-02-18T09:25:10.651Z,2.60
2023-02-18T09:27:38.720Z,3.08
2023-02-18T09:30:07.403Z,3.30
2023-02-18T09:32:35.655Z,3.20
2023-02-18T09:35:06.038Z,2.50
2023-02-18T09:40:01.830Z,5.00
2023-02-18T09:42:33.798Z,3.20
2023-02-18T09:45:07.688Z,3.28
2023-02-18T09:47:41.836Z,2.58
2023-02-18T09:50:21.220Z,3.65
2023-02-18T09:52:49.446Z,2.42
2023-02-18T09:55:29.155Z,3.15
2023-02-18T09:58:18.952Z,3.20
2023-02-18T10:00:53.199Z,2.65
2023-02-18T10:03:24.538Z,4.93
2023-02-18T10:05:59.490Z,3.58
2023-02-18T10:08:35.879Z,3.80
2023-02-18T10:11:04.343Z,3.65
2023-02-18T10:13:34.652Z,3.15
2023-02-18T10:16:04.707Z,3.60
2023-02-18T10:18:36.329Z,3.53
2023-02-18T10:21:16.484Z,2.85
2023-02-18T10:24:01.353Z,6.03
2023-02-18T10:26:34.081Z,3.03
2023-02-18T10:29:01.853Z,3.78
2023-02-18T10:31:38.206Z,4.03
2023-02-18T10:34:25.041Z,3.42
2023-02-18T10:37:01.661Z,2.90
2023-02-18T10:39:47.330Z,3.70
2023-02-18T10:42:44.071Z,4.20
2023-02-18T10:45:41.824Z,5.13
2023-02-18T10:48:41.167Z,3.05
2023-02-18T10:51:40.551Z,5.35
2023-02-18T10:54:09.150Z,3.97
2023-02-18T10:56:50.890Z,3.35
2023-02-18T10:59:24.234Z,4.35
2023-02-18T11:02:03.690Z,2.53
2023-02-18T11:04:45.264Z,3.20
2023-02-18T11:07:35.452Z,4.25
2023-02-18T11:10:18.272Z,3.40
2023-02-18T11:12:49.818Z,4.20
2023-02-18T11:15:24.047Z,3.17
2023-02-18T11:17:55.048Z,3.72
2023-02-18T11:20:35.594Z,5.10
2023-02-18T11:25:37.984Z,2.97
2023-02-18T11:28:17.039Z,4.30
2023-02-18T11:30:48.569Z,4.65
2023-02-18T11:33:18.951Z,2.33
2023-02-18T11:38:29.172Z,3.63
2023-02-18T11:41:04.293Z,4.00
2023-02-18T11:43:31.856Z,2.25
2023-02-18T11:46:23.086Z,3.83
2023-02-18T11:48:51.675Z,2.60
2023-02-18T11:51:28.373Z,3.40
2023-02-18T11:54:00.528Z,2.40
2023-02-18T11:56:34.221Z,2.58
2023-02-18T11:59:03.493Z,2.45
2023-02-18T12:01:47.124Z,2.33
2023-02-18T12:04:19.253Z,3.13
2023-02-18T12:06:55.583Z,2.63
2023-02-18T12:09:32.048Z,2.80
2023-02-18T12:12:03.524Z,3.90
2023-02-18T12:14:31.083Z,3.00
2023-02-18T12:17:15.085Z,4.03
2023-02-18T12:20:19.562Z,3.50
2023-02-18T12:22:54.260Z,2.72
2023-02-18T12:25:26.625Z,2.85
2023-02-18T12:28:28.959Z,3.00
2023-02-18T12:31:13.879Z,3.90
2023-02-18T12:33:52.508Z,3.38
2023-02-18T12:36:48.248Z,3.00
2023-02-18T12:39:15.503Z,3.85
2023-02-18T12:42:21.257Z,3.70
2023-02-18T12:45:22.798Z,2.70
2023-02-18T12:48:11.685Z,3.05
2023-02-18T12:51:11.702Z,2.90
2023-02-18T12:53:50.631Z,2.28
2023-02-18T12:56:29.617Z,3.53
2023-02-18T12:59:11.357Z,2.00
2023-02-18T13:02:05.119Z,2.42
2023-02-18T13:05:14.423Z,2.58
2023-02-18T13:08:01.786Z,2.35
2023-02-18T13:10:43.456Z,2.13
2023-02-18T13:13:12.833Z,3.40
2023-02-18T13:15:45.959Z,2.65
2023-02-18T13:18:19.119Z,1.40
2023-02-18T13:20:52.425Z,2.05
2023-02-18T13:23:26.163Z,2.10
2023-02-18T13:26:01.205Z,2.22
2023-02-18T13:28:40.647Z,1.13
2023-02-18T13:31:28.456Z,2.07
2023-02-18T13:34:24.878Z,1.13
2023-02-18T13:37:29.680Z,1.25
2023-02-18T13:39:59.238Z,1.30
2023-02-18T13:42:33.400Z,1.58
2023-02-18T13:45:00.790Z,2.95
2023-02-18T13:47:50.089Z,2.33
2023-02-18T13:50:31.582Z,2.53
2023-02-18T13:53:07.951Z,2.50
2023-02-18T13:55:57.215Z,2.90
2023-02-18T13:58:42.845Z,1.98
2023-02-18T14:01:12.981Z,2.85
2023-02-18T14:03:43.626Z,2.13
2023-02-18T14:06:37.433Z,1.88
2023-02-18T14:09:26.038Z,3.03
2023-02-18T14:12:16.158Z,2.65
2023-02-18T14:14:44.051Z,2.03
2023-02-18T14:17:20.814Z,2.60
2023-02-18T14:19:56.002Z,2.60
2023-02-18T14:22:32.767Z,2.22
2023-02-18T14:25:04.943Z,3.15
2023-02-18T14:27:32.368Z,3.70
2023-02-18T14:30:07.566Z,2.00
2023-02-18T14:32:35.205Z,3.92
2023-02-18T14:35:20.187Z,3.33
2023-02-18T14:38:06.493Z,1.80
2023-02-18T14:40:59.114Z,2.92
2023-02-18T14:43:38.880Z,2.33
2023-02-18T14:46:20.166Z,3.22
2023-02-18T14:48:53.594Z,3.80
2023-02-18T14:51:24.108Z,2.10
2023-02-18T14:53:52.782Z,2.72
2023-02-18T14:56:22.390Z,1.80
2023-02-18T14:58:55.946Z,2.70
2023-02-18T15:01:32.346Z,2.80
2023-02-18T15:04:01.676Z,2.13
2023-02-18T15:06:30.479Z,1.52
2023-02-18T15:08:59.039Z,2.38
2023-02-18T15:11:50.914Z,2.10
2023-02-18T15:14:35.023Z,1.83
2023-02-18T15:17:03.706Z,2.58
2023-02-18T15:19:40.624Z,2.42
2023-02-18T15:22:16.445Z,2.88
2023-02-18T15:24:44.488Z,4.68
2023-02-18T15:27:20.456Z,2.28
2023-02-18T15:29:53.857Z,1.77
2023-02-18T15:32:29.761Z,1.75
2023-02-18T15:35:02.146Z,2.22
2023-02-18T15:37:31.231Z,1.92
2023-02-18T15:39:58.914Z,2.42
2023-02-18T15:42:30.751Z,2.20
2023-02-18T15:44:59.974Z,1.85
2023-02-18T15:47:27.612Z,2.53
2023-02-18T15:49:59.099Z,1.85
2023-02-18T15:52:32.878Z,1.70
2023-02-18T15:55:12.981Z,1.85
2023-02-18T15:57:40.883Z,1.50
2023-02-18T16:00:21.503Z,1.70
2023-02-18T16:03:13.943Z,1.90
2023-02-18T16:05:43.281Z,2.20
2023-02-18T16:08:18.526Z,2.20
2023-02-18T16:10:50.866Z,2.50
2023-02-18T16:13:18.716Z,2.58
2023-02-18T16:15:49.023Z,1.88
2023-02-18T16:18:38.962Z,1.77
2023-02-18T16:21:18.531Z,1.77
2023-02-18T16:23:59.908Z,2.23
2023-02-18T16:26:38.193Z,2.20
2023-02-18T16:29:14.247Z,2.22
2023-02-18T16:31:42.217Z,1.50
2023-02-18T16:34:09.854Z,1.40
2023-02-18T16:36:37.524Z,1.63
2023-02-18T16:39:05.435Z,1.35
2023-02-18T16:41:33.400Z,1.30
2023-02-18T16:44:01.162Z,1.73
2023-02-18T16:46:30.800Z,2.05
2023-02-18T16:48:59.469Z,1.63
2023-02-18T16:51:35.532Z,1.75
2023-02-18T16:54:03.357Z,2.05
2023-02-18T16:56:34.381Z,1.60
2023-02-18T16:59:02.523Z,3.70
2023-02-18T17:01:39.019Z,8.07
2023-02-18T17:04:07.168Z,9.93
2023-02-18T17:06:35.741Z,9.80
2023-02-18T17:09:13.523Z,8.52
2023-02-18T17:11:42.973Z,6.00
2023-02-18T17:14:15.402Z,6.20
2023-02-18T17:16:43.293Z,7.82
2023-02-18T17:19:11.945Z,6.20
2023-02-18T17:21:40.122Z,4.32
2023-02-18T17:24:13.911Z,3.60
2023-02-18T17:26:42.382Z,3.95
2023-02-18T17:29:10.713Z,2.80
2023-02-18T17:31:44.875Z,2.85
2023-02-18T17:34:25.570Z,2.75
2023-02-18T17:36:53.450Z,3.13
2023-02-18T17:39:21.827Z,2.75
2023-02-18T17:41:49.913Z,3.60
2023-02-18T17:44:22.982Z,3.47
2023-02-18T17:46:51.052Z,3.45
2023-02-18T17:49:19.334Z,3.40
2023-02-18T17:51:47.466Z,4.10
2023-02-18T17:54:19.002Z,3.40
2023-02-18T17:56:47.773Z,3.92
2023-02-18T17:59:15.751Z,3.58
2023-02-18T18:01:44.481Z,3.92
2023-02-18T18:04:17.858Z,4.38
2023-02-18T18:06:50.325Z,4.57
2023-02-18T18:09:17.985Z,3.85
2023-02-18T18:11:46.093Z,4.03
2023-02-18T18:14:15.799Z,4.43
2023-02-18T18:16:44.242Z,4.05
2023-02-18T18:19:12.322Z,4.13
2023-02-18T18:21:41.070Z,3.90
2023-02-18T18:24:12.847Z,3.65
2023-02-18T18:26:40.783Z,3.33
2023-02-18T18:29:08.819Z,3.45
2023-02-18T18:31:37.816Z,3.33
2023-02-18T18:34:05.774Z,3.10
2023-02-18T18:36:33.953Z,3.25
2023-02-18T18:39:01.842Z,4.40
2023-02-18T18:41:30.055Z,5.60
2023-02-18T18:43:57.875Z,4.07
2023-02-18T18:46:26.117Z,3.75
2023-02-18T18:48:54.158Z,4.18
2023-02-18T18:51:33.520Z,5.03
2023-02-18T18:54:01.817Z,4.23
2023-02-18T18:56:30.001Z,4.63
2023-02-18T18:58:58.310Z,4.97
2023-02-18T19:01:27.897Z,4.97
2023-02-18T19:03:56.826Z,5.78
2023-02-18T19:06:24.714Z,4.75
2023-02-18T19:08:52.772Z,5.43
2023-02-18T19:11:20.879Z,6.35
2023-02-18T19:13:49.211Z,5.30
2023-02-18T19:16:23.046Z,6.13
2023-02-18T19:18:51.430Z,6.60
2023-02-18T19:21:19.449Z,6.07
2023-02-18T19:23:47.270Z,5.70
2023-02-18T19:26:17.621Z,6.65
2023-02-18T19:28:46.623Z,7.07
2023-02-18T19:31:15.883Z,4.82
2023-02-18T19:33:45.939Z,5.43
2023-02-18T19:36:15.208Z,6.43
2023-02-18T19:38:42.947Z,6.60
2023-02-18T19:41:13.601Z,4.90
2023-02-18T19:43:43.223Z,6.05
2023-02-18T19:46:14.987Z,6.15
2023-02-18T19:48:43.113Z,5.95
2023-02-18T19:51:12.215Z,6.05
2023-02-18T19:53:41.308Z,5.40
2023-02-18T19:56:10.276Z,5.32
2023-02-18T19:58:40.757Z,6.78
2023-02-18T20:03:40.666Z,6.65
2023-02-18T20:06:15.807Z,6.15
2023-02-18T20:08:43.886Z,6.93
2023-02-18T20:11:12.265Z,5.40
2023-02-18T20:13:40.732Z,4.90
2023-02-18T20:16:10.720Z,5.97
2023-02-18T20:18:38.631Z,6.13
2023-02-18T20:21:06.436Z,4.05
2023-02-18T20:23:34.164Z,5.40
2023-02-18T20:26:04.743Z,8.68
2023-02-18T20:28:32.644Z,4.75
2023-02-18T20:31:12.496Z,6.15
2023-02-18T20:33:42.814Z,7.30
2023-02-18T20:36:11.533Z,3.90
2023-02-18T20:38:40.154Z,4.43
2023-02-18T20:41:12.166Z,4.00
2023-02-18T20:43:40.891Z,4.80
2023-02-18T20:46:12.941Z,6.32
2023-02-18T20:48:41.124Z,5.22
2023-02-18T20:51:12.437Z,5.05
2023-02-18T20:53:42.318Z,5.75
2023-02-18T20:56:11.212Z,4.68
2023-02-18T20:58:39.845Z,4.95
2023-02-18T21:01:16.520Z,5.30
2023-02-18T21:03:47.938Z,5.97
2023-02-18T21:06:19.761Z,4.53
2023-02-18T21:08:50.774Z,4.38
2023-02-18T21:11:21.107Z,3.80
2023-02-18T21:13:50.808Z,4.20
2023-02-18T21:16:22.202Z,3.78
2023-02-18T21:18:51.297Z,3.05
2023-02-18T21:21:25.909Z,4.07
2023-02-18T21:23:53.966Z,3.72
2023-02-18T21:26:25.000Z,3.85
2023-02-18T21:28:56.264Z,4.18
2023-02-18T21:31:33.437Z,3.45
2023-02-18T21:34:02.421Z,4.75
2023-02-18T21:36:32.119Z,3.13
2023-02-18T21:39:04.739Z,3.38
2023-02-18T21:41:34.989Z,3.80
2023-02-18T21:44:03.254Z,3.72
2023-02-18T21:46:33.688Z,3.38
2023-02-18T21:49:07.496Z,3.10
2023-02-18T21:51:59.631Z,3.38
2023-02-18T21:54:40.256Z,3.63
2023-02-18T21:57:12.839Z,3.20
2023-02-18T21:59:41.969Z,3.28
2023-02-18T22:02:17.958Z,3.50
2023-02-18T22:04:46.506Z,3.92
2023-02-18T22:07:14.949Z,3.55
2023-02-18T22:09:43.141Z,2.90
2023-02-18T22:12:12.347Z,2.85
2023-02-18T22:14:40.585Z,3.70
2023-02-18T22:17:09.748Z,3.33
2023-02-18T22:19:37.501Z,4.60
2023-02-18T22:22:05.816Z,4.03
2023-02-18T22:24:33.921Z,3.60
2023-02-18T22:27:02.281Z,3.40
2023-02-18T22:29:32.440Z,3.25
2023-02-18T22:34:28.039Z,3.08
2023-02-18T22:36:55.312Z,3.45
2023-02-18T22:39:22.692Z,3.17
2023-02-18T22:41:50.025Z,2.85
2023-02-18T22:44:18.351Z,3.33
2023-02-18T22:46:45.931Z,2.88
2023-02-18T22:49:13.614Z,2.72
2023-02-18T22:51:43.667Z,3.00
2023-02-18T22:54:14.739Z,3.47
2023-02-18T22:56:43.065Z,2.95
2023-02-18T22:59:12.097Z,3.90
2023-02-18T23:01:42.059Z,2.83
2023-02-18T23:04:12.311Z,3.40
2023-02-18T23:09:11.466Z,3.22
2023-02-18T23:11:39.281Z,3.20
2023-02-18T23:14:18.857Z,3.35
2023-02-18T23:17:06.604Z,3.25
2023-02-18T23:19:35.392Z,2.85
2023-02-18T23:22:03.697Z,2.90
2023-02-18T23:24:40.618Z,3.00
2023-02-18T23:27:10.547Z,3.42
2023-02-18T23:29:38.715Z,3.08
2023-02-18T23:32:07.033Z,3.60
2023-02-18T23:34:35.281Z,3.63
2023-02-18T23:37:02.710Z,3.60
2023-02-18T23:39:30.161Z,3.78
2023-02-18T23:41:57.762Z,3.95
2023-02-18T23:44:26.699Z,3.88
2023-02-18T23:46:54.401Z,3.72
2023-02-18T23:49:24.598Z,4.25
2023-02-18T23:54:21.332Z,4.78
2023-02-18T23:56:49.520Z,4.30
2023-02-18T23:59:16.978Z,5.60
